Time;durP1;ratioP1;P1;durP2;ratioP2;P2;SDS_P1;SDS_P2;PMS_P1;PMS_P2;Temp;Humidity;BMP_temperature;BMP_pressure;BME280_temperature;BME280_humidity;BME280_pressure;Samples;Min_cycle;Max_cycle;Signal;HPM_P1;HPM_P2
2021/12/05 00:22:23;;;;;;;36.45;9.70;;;;;;;;;;4985449;28;20138;-86
2021/12/05 00:25:12;;;;;;;40.22;9.75;;;;;;;;;;4986701;28;20055;-86
2021/12/05 00:28:21;;;;;;;33.00;8.55;;;;;;;;;;4985892;28;20096;-85
2021/12/05 00:31:41;;;;;;;29.70;8.15;;;;;;;;;;4985388;28;20058;-85
2021/12/05 00:46:46;;;;;;;31.98;8.70;;;;;;;;;;4985832;28;20728;-86
2021/12/05 00:55:31;;;;;;;31.25;6.55;;;;;;;;;;4986379;28;20051;-85
2021/12/05 00:59:04;;;;;;;21.85;5.75;;;;;;;;;;4985321;28;20496;-85
2021/12/05 01:13:36;;;;;;;18.48;5.35;;;;;;;;;;4985410;28;20171;-86
2021/12/05 01:16:25;;;;;;;26.98;5.68;;;;;;;;;;4985550;28;20063;-86
2021/12/05 01:19:13;;;;;;;29.90;6.20;;;;;;;;;;4984403;28;20049;-87
2021/12/05 01:22:04;;;;;;;25.50;5.82;;;;;;;;;;4985050;28;20051;-86
2021/12/05 01:25:02;;;;;;;21.60;5.28;;;;;;;;;;4984473;28;20058;-86
2021/12/05 01:28:02;;;;;;;22.35;5.65;;;;;;;;;;4985403;28;20059;-86
2021/12/05 01:31:10;;;;;;;14.88;5.15;;;;;;;;;;4985104;28;20047;-86
2021/12/05 01:40:02;;;;;;;17.85;4.85;;;;;;;;;;4984072;28;20745;-86
2021/12/05 01:52:15;;;;;;;20.55;5.63;;;;;;;;;;4964756;28;20069;-86
2021/12/05 02:16:44;;;;;;;20.45;4.35;;;;;;;;;;4970247;28;20055;-86
2021/12/05 02:35:26;;;;;;;25.13;4.40;;;;;;;;;;4971836;28;20060;-85
2021/12/05 02:38:48;;;;;;;13.77;3.83;;;;;;;;;;4971594;28;20051;-86
2021/12/05 02:41:24;;;;;;;24.63;4.55;;;;;;;;;;4958823;28;20044;-87
2021/12/05 02:44:22;;;;;;;13.73;3.88;;;;;;;;;;4951737;28;20066;-86
2021/12/05 02:47:12;;;;;;;19.35;4.10;;;;;;;;;;4961599;28;20059;-86
2021/12/05 02:50:01;;;;;;;24.50;4.78;;;;;;;;;;4970432;28;20146;-86
2021/12/05 02:52:49;;;;;;;19.30;3.47;;;;;;;;;;4971905;28;20059;-86
2021/12/05 02:55:43;;;;;;;17.00;3.63;;;;;;;;;;4971433;28;20051;-86
2021/12/05 02:58:43;;;;;;;18.48;3.88;;;;;;;;;;4970768;28;20053;-86
2021/12/05 03:01:45;;;;;;;18.08;3.85;;;;;;;;;;4970550;28;20055;-86
2021/12/05 03:04:33;;;;;;;23.95;4.43;;;;;;;;;;4969731;28;20073;-86
2021/12/05 03:07:26;;;;;;;22.23;3.20;;;;;;;;;;4968690;28;20063;-86
2021/12/05 03:10:16;;;;;;;20.17;3.53;;;;;;;;;;4968591;28;20101;-86
2021/12/05 03:13:03;;;;;;;16.98;4.20;;;;;;;;;;4966627;28;20074;-86
2021/12/05 03:15:51;;;;;;;17.10;3.78;;;;;;;;;;4967704;28;20091;-86
2021/12/05 03:18:38;;;;;;;23.73;3.53;;;;;;;;;;4966683;28;20055;-87
2021/12/05 03:21:26;;;;;;;15.70;3.45;;;;;;;;;;4967947;28;20051;-86
2021/12/05 03:24:14;;;;;;;16.85;3.60;;;;;;;;;;4967445;28;20055;-87
2021/12/05 03:27:01;;;;;;;22.75;3.60;;;;;;;;;;4967564;28;20051;-86
2021/12/05 03:29:48;;;;;;;20.77;3.58;;;;;;;;;;4967336;28;20047;-86
2021/12/05 03:32:35;;;;;;;13.25;2.97;;;;;;;;;;4966935;28;20051;-86
2021/12/05 03:35:26;;;;;;;24.90;4.10;;;;;;;;;;4966861;28;20915;-86
2021/12/05 03:38:13;;;;;;;19.02;3.17;;;;;;;;;;4967292;28;20529;-86
2021/12/05 03:41:00;;;;;;;18.92;4.10;;;;;;;;;;4974326;28;20520;-86
2021/12/05 03:43:48;;;;;;;16.98;3.58;;;;;;;;;;4986926;28;20055;-86
2021/12/05 03:46:35;;;;;;;21.58;3.90;;;;;;;;;;4986173;28;20725;-86
2021/12/05 03:49:23;;;;;;;12.00;3.03;;;;;;;;;;4985883;28;20067;-87
2021/12/05 03:52:12;;;;;;;17.05;3.58;;;;;;;;;;4987359;28;20061;-86
2021/12/05 03:54:59;;;;;;;16.77;3.47;;;;;;;;;;4985816;28;20043;-86
2021/12/05 03:57:46;;;;;;;13.40;3.33;;;;;;;;;;4985437;28;20059;-86
2021/12/05 04:00:35;;;;;;;18.52;3.28;;;;;;;;;;4986206;28;20054;-87
2021/12/05 04:03:24;;;;;;;14.70;2.95;;;;;;;;;;4986462;28;20518;-87
2021/12/05 04:06:12;;;;;;;29.23;4.75;;;;;;;;;;4987318;28;20051;-87
2021/12/05 04:09:03;;;;;;;16.10;3.70;;;;;;;;;;4985975;28;20175;-86
2021/12/05 04:12:02;;;;;;;19.23;4.72;;;;;;;;;;4987542;28;20112;-87
2021/12/05 04:14:54;;;;;;;18.38;3.75;;;;;;;;;;4985969;28;20973;-87
2021/12/05 04:17:41;;;;;;;14.32;3.90;;;;;;;;;;4986433;28;20054;-87
2021/12/05 04:20:28;;;;;;;29.65;4.50;;;;;;;;;;4986127;28;20065;-87
2021/12/05 04:23:15;;;;;;;19.55;3.92;;;;;;;;;;4986577;28;20506;-86
2021/12/05 04:26:03;;;;;;;19.48;3.90;;;;;;;;;;4986564;28;20054;-86
2021/12/05 04:28:50;;;;;;;24.67;4.38;;;;;;;;;;4984756;28;20062;-87
2021/12/05 04:31:38;;;;;;;19.83;3.72;;;;;;;;;;4985434;28;20059;-87
2021/12/05 04:34:25;;;;;;;22.60;4.43;;;;;;;;;;4985315;28;20082;-86
2021/12/05 04:37:12;;;;;;;15.73;3.58;;;;;;;;;;4985518;28;20419;-86
2021/12/05 04:39:59;;;;;;;15.85;4.07;;;;;;;;;;4986627;28;20860;-86
2021/12/05 04:42:46;;;;;;;23.52;4.57;;;;;;;;;;4985734;28;20343;-87
2021/12/05 04:45:35;;;;;;;16.42;4.32;;;;;;;;;;4984557;28;20047;-87
2021/12/05 04:48:22;;;;;;;15.25;4.10;;;;;;;;;;4966367;28;20046;-87
2021/12/05 04:51:09;;;;;;;16.25;4.50;;;;;;;;;;4965440;28;20534;-87
2021/12/05 04:53:57;;;;;;;19.75;3.67;;;;;;;;;;4965842;28;20062;-86
2021/12/05 04:56:45;;;;;;;13.38;4.43;;;;;;;;;;4965767;28;20861;-87
2021/12/05 04:59:35;;;;;;;15.02;4.10;;;;;;;;;;4966750;28;20047;-86
2021/12/05 05:02:22;;;;;;;12.25;3.70;;;;;;;;;;4966520;28;20085;-87
2021/12/05 05:05:10;;;;;;;23.40;4.32;;;;;;;;;;4965033;28;20062;-87
2021/12/05 05:07:58;;;;;;;9.48;3.65;;;;;;;;;;4966199;28;20059;-87
2021/12/05 05:10:46;;;;;;;22.52;4.20;;;;;;;;;;4965585;28;20098;-87
2021/12/05 05:13:33;;;;;;;24.40;4.13;;;;;;;;;;4965605;28;20513;-87
2021/12/05 05:16:22;;;;;;;18.70;4.80;;;;;;;;;;4965851;28;20044;-87
2021/12/05 05:19:11;;;;;;;17.73;4.90;;;;;;;;;;4964570;28;20480;-87
2021/12/05 05:22:10;;;;;;;20.30;4.85;;;;;;;;;;4964368;28;20059;-87
2021/12/05 05:28:25;;;;;;;19.65;5.20;;;;;;;;;;4965587;28;20560;-87
2021/12/05 05:46:22;;;;;;;15.70;4.78;;;;;;;;;;4983819;28;20830;-87
2021/12/05 05:49:23;;;;;;;14.77;5.05;;;;;;;;;;4985950;28;20051;-87
2021/12/05 05:52:10;;;;;;;18.00;4.78;;;;;;;;;;4985239;28;20066;-86
2021/12/05 05:54:59;;;;;;;19.95;4.82;;;;;;;;;;4984088;28;20047;-87
2021/12/05 05:57:59;;;;;;;16.83;5.95;;;;;;;;;;4984638;28;20066;-86
2021/12/05 06:01:04;;;;;;;9.23;5.00;;;;;;;;;;4983364;28;21209;-86
2021/12/05 06:03:51;;;;;;;12.93;6.07;;;;;;;;;;4984744;28;20065;-86
2021/12/05 06:06:38;;;;;;;12.95;5.95;;;;;;;;;;4984586;28;20062;-87
2021/12/05 06:09:25;;;;;;;16.13;6.47;;;;;;;;;;4984494;28;20062;-87
2021/12/05 06:12:12;;;;;;;12.38;6.07;;;;;;;;;;4984716;28;20047;-87
2021/12/05 06:14:59;;;;;;;16.83;6.10;;;;;;;;;;4984403;28;20523;-87
2021/12/05 06:17:46;;;;;;;20.48;5.72;;;;;;;;;;4984565;28;20054;-86
2021/12/05 06:20:33;;;;;;;13.43;6.18;;;;;;;;;;4985003;28;20544;-86
2021/12/05 06:23:20;;;;;;;16.88;6.25;;;;;;;;;;4984153;28;20057;-87
2021/12/05 06:26:09;;;;;;;12.00;6.32;;;;;;;;;;4984807;28;20435;-86
2021/12/05 06:29:05;;;;;;;17.98;6.60;;;;;;;;;;4983823;28;20051;-86
2021/12/05 06:37:50;;;;;;;15.18;6.65;;;;;;;;;;4984118;28;20054;-87
2021/12/05 06:41:00;;;;;;;19.05;7.07;;;;;;;;;;4984334;28;20065;-87
2021/12/05 06:46:35;;;;;;;15.85;6.50;;;;;;;;;;4987452;28;20055;-87
2021/12/05 06:49:22;;;;;;;14.13;6.50;;;;;;;;;;4987508;28;20900;-86
2021/12/05 06:52:10;;;;;;;17.45;6.80;;;;;;;;;;4987752;28;20419;-87
2021/12/05 06:54:57;;;;;;;12.38;6.60;;;;;;;;;;4988044;28;20733;-87
2021/12/05 06:57:45;;;;;;;13.70;6.83;;;;;;;;;;4986976;28;20051;-86
2021/12/05 07:00:32;;;;;;;18.65;6.40;;;;;;;;;;4987463;28;20471;-86
2021/12/05 07:03:19;;;;;;;15.27;6.85;;;;;;;;;;4986369;28;20712;-86
2021/12/05 07:06:10;;;;;;;16.97;7.10;;;;;;;;;;4986978;28;20047;-86
2021/12/05 07:09:05;;;;;;;16.73;6.75;;;;;;;;;;4987959;28;20058;-87
2021/12/05 07:23:47;;;;;;;12.40;6.90;;;;;;;;;;4986474;28;20523;-88
2021/12/05 07:42:19;;;;;;;10.55;6.85;;;;;;;;;;4986135;28;20494;-87
2021/12/05 07:44:58;;;;;;;15.17;7.40;;;;;;;;;;4985889;28;20951;-87
2021/12/05 07:47:49;;;;;;;9.75;7.15;;;;;;;;;;4987057;28;20441;-87
2021/12/05 07:54:00;;;;;;;10.93;6.90;;;;;;;;;;4985282;28;20051;-87
2021/12/05 07:57:12;;;;;;;12.20;8.43;;;;;;;;;;4986132;28;20051;-87
2021/12/05 08:00:26;;;;;;;13.52;9.30;;;;;;;;;;4987710;28;20054;-87
2021/12/05 08:15:47;;;;;;;12.43;8.35;;;;;;;;;;4985693;28;20055;-83
2021/12/05 08:18:35;;;;;;;12.20;8.00;;;;;;;;;;4986325;28;20050;-88
2021/12/05 08:21:22;;;;;;;14.17;8.10;;;;;;;;;;4979732;28;20513;-84
2021/12/05 08:24:09;;;;;;;13.88;8.15;;;;;;;;;;4984221;28;20058;-82
2021/12/05 08:26:56;;;;;;;9.60;7.43;;;;;;;;;;4984149;28;20057;-84
2021/12/05 08:29:51;;;;;;;12.77;8.10;;;;;;;;;;4985144;28;20047;-84
2021/12/05 08:33:14;;;;;;;11.45;7.97;;;;;;;;;;4984748;28;20914;-84
2021/12/05 08:36:19;;;;;;;12.85;7.03;;;;;;;;;;4983193;28;20046;-83
2021/12/05 09:26:22;;;;;;;13.43;8.18;;;;;;;;;;5009561;28;45710;-86
2021/12/05 10:15:38;;;;;;;15.48;9.50;;;;;;;;;;4986701;28;43979;-86
2021/12/05 10:18:46;;;;;;;13.10;8.85;;;;;;;;;;4962242;28;46236;-86
2021/12/05 10:26:46;;;;;;;13.90;10.45;;;;;;;;;;4989722;28;45739;-86
2021/12/05 10:38:02;;;;;;;47.05;27.58;;;;;;;;;;4909106;28;42864;-86
2021/12/05 10:40:37;;;;;;;79.72;54.05;;;;;;;;;;4989904;28;45944;-86
2021/12/05 10:43:10;;;;;;;22.25;14.77;;;;;;;;;;4988763;28;44225;-86
2021/12/05 10:45:39;;;;;;;17.60;12.48;;;;;;;;;;4990301;28;43913;-85
2021/12/05 10:48:07;;;;;;;24.20;13.32;;;;;;;;;;4989860;28;43898;-85
2021/12/05 10:50:45;;;;;;;23.02;16.85;;;;;;;;;;4990255;28;44565;-86
2021/12/05 10:53:26;;;;;;;20.48;13.93;;;;;;;;;;4990718;28;43892;-85
2021/12/05 10:55:58;;;;;;;21.52;12.68;;;;;;;;;;4987258;28;45003;-85
2021/12/05 10:58:30;;;;;;;28.20;22.15;;;;;;;;;;4971204;28;43834;-85
2021/12/05 11:01:06;;;;;;;23.92;16.48;;;;;;;;;;4970905;28;43941;-83
2021/12/05 11:03:36;;;;;;;19.65;14.73;;;;;;;;;;4971148;28;43415;-84
2021/12/05 11:06:23;;;;;;;27.92;16.75;;;;;;;;;;4971374;28;42904;-85
2021/12/05 11:08:54;;;;;;;24.67;17.13;;;;;;;;;;4967350;28;45957;-85
2021/12/05 11:11:21;;;;;;;26.15;17.73;;;;;;;;;;4970099;28;46210;-86
2021/12/05 11:13:50;;;;;;;32.53;27.63;;;;;;;;;;4971341;28;44823;-85
2021/12/05 11:16:31;;;;;;;42.85;29.48;;;;;;;;;;4970794;28;43723;-85
2021/12/05 11:18:58;;;;;;;35.85;23.15;;;;;;;;;;4971520;28;44949;-85
2021/12/05 11:21:34;;;;;;;35.58;25.30;;;;;;;;;;4970562;28;43679;-85
2021/12/05 11:24:06;;;;;;;28.55;21.67;;;;;;;;;;4969975;28;45993;-85
2021/12/05 11:26:33;;;;;;;20.77;15.30;;;;;;;;;;4971518;28;45252;-85
2021/12/05 11:29:00;;;;;;;24.60;19.23;;;;;;;;;;4969905;28;45707;-85
2021/12/05 11:31:28;;;;;;;19.90;12.75;;;;;;;;;;4969902;28;43846;-85
2021/12/05 11:33:55;;;;;;;20.05;14.27;;;;;;;;;;4991470;28;44039;-85
2021/12/05 11:36:23;;;;;;;25.30;14.40;;;;;;;;;;4996630;28;43784;-86
2021/12/05 11:38:50;;;;;;;26.80;14.43;;;;;;;;;;4995386;28;44912;-85
2021/12/05 11:41:20;;;;;;;20.77;14.18;;;;;;;;;;4989594;28;43957;-85
2021/12/05 11:43:51;;;;;;;22.45;15.10;;;;;;;;;;4990209;28;46013;-85
2021/12/05 11:46:27;;;;;;;19.65;13.82;;;;;;;;;;4989607;28;44265;-82
2021/12/05 11:48:54;;;;;;;24.00;16.95;;;;;;;;;;4990988;28;45773;-84
2021/12/05 11:51:23;;;;;;;19.17;15.85;;;;;;;;;;4989761;28;46121;-84
2021/12/05 11:54:09;;;;;;;16.95;13.45;;;;;;;;;;4990448;28;42891;-84
2021/12/05 11:56:44;;;;;;;15.68;11.75;;;;;;;;;;4990637;28;43668;-84
2021/12/05 11:59:11;;;;;;;18.35;14.90;;;;;;;;;;4989793;28;45979;-85
2021/12/05 12:01:37;;;;;;;25.25;17.38;;;;;;;;;;4991155;28;45005;-87
2021/12/05 12:04:05;;;;;;;16.05;11.02;;;;;;;;;;4990581;28;43861;-85
2021/12/05 12:06:32;;;;;;;18.73;13.05;;;;;;;;;;4990145;28;44984;-85
2021/12/05 12:08:59;;;;;;;16.15;12.48;;;;;;;;;;4990402;28;45811;-83
2021/12/05 12:11:26;;;;;;;19.15;12.70;;;;;;;;;;4990160;28;43841;-88
2021/12/05 12:13:54;;;;;;;16.52;12.90;;;;;;;;;;4989600;28;44879;-83
2021/12/05 12:16:21;;;;;;;21.60;15.15;;;;;;;;;;4990858;28;43705;-84
2021/12/05 12:18:49;;;;;;;20.70;15.43;;;;;;;;;;4990618;28;43968;-84
2021/12/05 12:21:21;;;;;;;38.80;23.00;;;;;;;;;;4987635;28;44924;-85
2021/12/05 12:23:50;;;;;;;32.55;22.10;;;;;;;;;;4991365;28;46278;-84
2021/12/05 12:26:17;;;;;;;45.42;29.17;;;;;;;;;;4989771;28;43922;-85
2021/12/05 12:28:45;;;;;;;16.35;12.77;;;;;;;;;;4986061;28;45719;-85
2021/12/05 12:31:14;;;;;;;52.00;35.83;;;;;;;;;;4987820;28;46147;-84
2021/12/05 12:33:49;;;;;;;59.75;43.40;;;;;;;;;;4988266;28;43988;-84
2021/12/05 12:36:29;;;;;;;52.70;33.03;;;;;;;;;;4988832;28;45643;-84
2021/12/05 12:38:55;;;;;;;34.80;23.52;;;;;;;;;;4988213;28;46623;-84
2021/12/05 12:41:23;;;;;;;31.13;21.77;;;;;;;;;;4986462;28;42937;-84
2021/12/05 12:43:59;;;;;;;37.47;26.90;;;;;;;;;;4989644;28;46113;-82
2021/12/05 12:46:25;;;;;;;38.13;29.42;;;;;;;;;;4988934;28;44901;-84
2021/12/05 12:48:54;;;;;;;64.10;46.72;;;;;;;;;;4988076;28;43673;-82
2021/12/05 12:51:32;;;;;;;80.32;58.92;;;;;;;;;;4988099;28;45904;-85
2021/12/05 12:54:02;;;;;;;45.13;32.75;;;;;;;;;;4988614;28;44901;-84
2021/12/05 12:56:29;;;;;;;56.22;40.78;;;;;;;;;;4988449;28;44722;-82
2021/12/05 12:59:07;;;;;;;21.52;15.90;;;;;;;;;;4988271;28;33240;-85
2021/12/05 13:01:49;;;;;;;21.58;15.35;;;;;;;;;;4988418;28;42432;-84
2021/12/05 13:04:39;;;;;;;21.90;14.85;;;;;;;;;;4988646;28;45754;-84
2021/12/05 13:10:18;;;;;;;14.35;12.10;;;;;;;;;;4944960;28;44839;-85
2021/12/05 13:12:55;;;;;;;17.45;12.68;;;;;;;;;;4982916;28;45007;-86
2021/12/05 13:15:27;;;;;;;13.63;10.07;;;;;;;;;;4988677;28;43849;-85
2021/12/05 13:18:02;;;;;;;14.48;11.40;;;;;;;;;;4987787;28;45103;-85
2021/12/05 13:20:40;;;;;;;17.73;14.10;;;;;;;;;;4987201;28;44629;-85
2021/12/05 13:23:08;;;;;;;15.98;10.00;;;;;;;;;;4986822;28;44879;-84
2021/12/05 13:25:55;;;;;;;23.60;18.00;;;;;;;;;;4988766;28;45711;-84
2021/12/05 13:28:36;;;;;;;14.82;12.27;;;;;;;;;;4987763;28;44969;-85
2021/12/05 13:31:21;;;;;;;12.25;10.05;;;;;;;;;;4986537;28;44935;-85
2021/12/05 13:33:48;;;;;;;14.23;11.07;;;;;;;;;;4987977;28;43766;-84
2021/12/05 13:36:32;;;;;;;24.05;17.45;;;;;;;;;;4988319;28;44961;-85
2021/12/05 13:38:59;;;;;;;21.75;15.60;;;;;;;;;;4986999;28;43714;-85
2021/12/05 13:41:29;;;;;;;18.95;13.30;;;;;;;;;;4986804;28;43928;-84
2021/12/05 13:43:57;;;;;;;16.70;12.65;;;;;;;;;;4987179;28;43990;-85
2021/12/05 13:46:36;;;;;;;15.52;12.50;;;;;;;;;;4988209;28;45778;-85
2021/12/05 13:49:28;;;;;;;15.93;10.45;;;;;;;;;;4988312;28;20102;-83
2021/12/05 13:51:54;;;;;;;15.77;11.80;;;;;;;;;;4983818;28;43004;-84
2021/12/05 13:54:24;;;;;;;14.50;10.90;;;;;;;;;;4986695;28;45806;-83
2021/12/05 13:57:06;;;;;;;14.70;11.80;;;;;;;;;;4987510;28;34567;-83
2021/12/05 13:59:32;;;;;;;13.88;11.10;;;;;;;;;;4987544;28;43788;-82
2021/12/05 14:01:59;;;;;;;13.32;10.43;;;;;;;;;;4986679;28;45057;-84
2021/12/05 14:04:34;;;;;;;15.63;10.80;;;;;;;;;;4988616;28;45035;-83
2021/12/05 14:07:09;;;;;;;15.15;11.55;;;;;;;;;;4988923;28;20079;-85
2021/12/05 14:09:40;;;;;;;12.27;10.95;;;;;;;;;;4988269;28;43986;-86
2021/12/05 14:12:14;;;;;;;10.45;9.18;;;;;;;;;;4986308;28;44919;-88
2021/12/05 14:14:59;;;;;;;12.07;10.10;;;;;;;;;;4988513;28;44662;-86
2021/12/05 14:17:33;;;;;;;13.68;11.15;;;;;;;;;;4988652;28;20505;-88
2021/12/05 14:20:03;;;;;;;14.55;10.95;;;;;;;;;;4987075;28;44670;-86
2021/12/05 14:22:32;;;;;;;10.80;9.13;;;;;;;;;;4987929;28;43100;-87
2021/12/05 14:24:58;;;;;;;;;;;;;;;;;;4989288;28;42869;-87
2021/12/05 14:27:33;;;;;;;13.05;9.73;;;;;;;;;;4991229;28;20425;-87
2021/12/05 14:30:00;;;;;;;9.60;8.60;;;;;;;;;;4992924;28;45889;-86
2021/12/05 14:32:28;;;;;;;10.13;8.88;;;;;;;;;;4986150;28;44882;-87
2021/12/05 14:34:57;;;;;;;8.73;7.90;;;;;;;;;;4987025;28;43700;-87
2021/12/05 14:37:25;;;;;;;9.75;8.57;;;;;;;;;;4986627;28;46029;-88
2021/12/05 14:39:59;;;;;;;8.88;7.65;;;;;;;;;;4990299;28;43883;-88
2021/12/05 14:42:27;;;;;;;11.38;9.45;;;;;;;;;;4985441;28;41336;-88
2021/12/05 14:44:57;;;;;;;10.45;9.32;;;;;;;;;;4987084;28;43141;-83
2021/12/05 14:47:26;;;;;;;20.13;12.80;;;;;;;;;;4986240;28;45953;-91
2021/12/05 14:49:52;;;;;;;;;;;;;;;;;;4988107;28;46081;-91
2021/12/05 14:52:21;;;;;;;12.30;10.35;;;;;;;;;;4986307;28;43060;-91
2021/12/05 14:54:48;;;;;;;11.65;9.90;;;;;;;;;;4986371;28;46071;-90
2021/12/05 14:57:17;;;;;;;18.33;10.68;;;;;;;;;;4972491;28;46019;-91
2021/12/05 14:59:45;;;;;;;12.90;10.70;;;;;;;;;;4978893;28;44959;-91
2021/12/05 15:02:12;;;;;;;11.20;9.95;;;;;;;;;;4984644;28;44969;-91
2021/12/05 15:04:41;;;;;;;13.15;10.77;;;;;;;;;;4989174;28;42456;-91
2021/12/05 15:07:08;;;;;;;13.02;11.23;;;;;;;;;;4990135;28;46189;-92
2021/12/05 15:09:40;;;;;;;14.05;11.02;;;;;;;;;;4976270;28;45000;-92
2021/12/05 15:12:09;;;;;;;12.63;11.10;;;;;;;;;;4970587;28;44833;-89
2021/12/05 15:14:37;;;;;;;13.43;10.30;;;;;;;;;;4971517;28;43762;-93
2021/12/05 15:17:05;;;;;;;14.77;11.75;;;;;;;;;;4971398;28;20047;-92
2021/12/05 15:19:33;;;;;;;16.63;11.55;;;;;;;;;;4971029;28;42885;-92
2021/12/05 15:22:02;;;;;;;15.80;11.50;;;;;;;;;;4971773;28;43822;-92
2021/12/05 15:24:29;;;;;;;18.02;11.30;;;;;;;;;;4970544;28;42905;-92
2021/12/05 15:26:58;;;;;;;17.37;12.40;;;;;;;;;;4971423;28;44864;-93
2021/12/05 15:29:25;;;;;;;14.90;10.93;;;;;;;;;;4970087;28;46331;-92
2021/12/05 15:32:17;;;;;;;16.70;12.17;;;;;;;;;;4972838;28;42863;-92
2021/12/05 15:34:51;;;;;;;15.88;12.18;;;;;;;;;;4990573;28;44608;-92
2021/12/05 15:37:18;;;;;;;19.45;13.07;;;;;;;;;;4989772;28;46078;-92
2021/12/05 15:39:46;;;;;;;24.02;13.93;;;;;;;;;;4990605;28;44876;-92
2021/12/05 15:42:18;;;;;;;18.45;15.82;;;;;;;;;;4990204;28;43712;-92
2021/12/05 15:44:45;;;;;;;17.88;15.05;;;;;;;;;;4989849;28;44174;-92
2021/12/05 15:47:14;;;;;;;18.10;14.90;;;;;;;;;;4990350;28;44732;-92
2021/12/05 15:50:02;;;;;;;17.80;13.57;;;;;;;;;;4990296;28;44930;-92
2021/12/05 15:52:35;;;;;;;14.95;12.43;;;;;;;;;;4989466;28;43653;-92
2021/12/05 15:55:06;;;;;;;18.30;13.70;;;;;;;;;;4987633;28;44666;-92
2021/12/05 15:57:35;;;;;;;16.77;13.20;;;;;;;;;;4988817;28;44382;-92
2021/12/05 16:00:07;;;;;;;17.52;14.50;;;;;;;;;;4989619;28;42944;-92
2021/12/05 16:02:34;;;;;;;19.45;15.27;;;;;;;;;;4990017;28;45812;-93
2021/12/05 16:05:02;;;;;;;17.60;13.10;;;;;;;;;;4987651;28;46042;-87
2021/12/05 16:07:30;;;;;;;17.25;13.98;;;;;;;;;;4972343;28;45352;-87
2021/12/05 16:09:57;;;;;;;;;;;;;;;;;;4989692;28;29629;-87
2021/12/05 16:12:23;;;;;;;20.90;15.05;;;;;;;;;;4983347;28;44058;-85
2021/12/05 16:14:56;;;;;;;18.35;14.55;;;;;;;;;;4970439;28;45729;-84
2021/12/05 16:17:26;;;;;;;27.20;16.77;;;;;;;;;;4981200;28;44965;-84
2021/12/05 16:20:06;;;;;;;23.50;17.40;;;;;;;;;;4988278;28;42888;-84
2021/12/05 16:22:53;;;;;;;27.00;17.58;;;;;;;;;;4989004;28;45733;-86
2021/12/05 16:25:20;;;;;;;21.73;16.23;;;;;;;;;;4989033;28;45065;-83
2021/12/05 16:27:51;;;;;;;18.80;14.95;;;;;;;;;;4989732;28;42857;-84
2021/12/05 16:30:22;;;;;;;15.70;12.68;;;;;;;;;;4990159;28;45653;-88
2021/12/05 16:32:49;;;;;;;14.90;12.20;;;;;;;;;;4989277;28;42941;-86
2021/12/05 16:35:24;;;;;;;19.92;13.23;;;;;;;;;;4998993;28;45921;-86
2021/12/05 16:37:51;;;;;;;18.63;13.45;;;;;;;;;;4996896;28;45274;-86
2021/12/05 16:40:19;;;;;;;16.33;13.35;;;;;;;;;;4996408;28;45058;-86
2021/12/05 16:42:46;;;;;;;16.67;12.98;;;;;;;;;;4995680;28;44382;-85
2021/12/05 16:45:13;;;;;;;17.70;13.98;;;;;;;;;;4995596;28;45635;-85
2021/12/05 16:47:43;;;;;;;18.10;14.40;;;;;;;;;;4998434;28;45111;-86
2021/12/05 16:50:13;;;;;;;15.50;13.05;;;;;;;;;;4999967;28;40701;-86
2021/12/05 16:52:47;;;;;;;21.98;14.35;;;;;;;;;;4999434;28;44939;-86
2021/12/05 16:55:26;;;;;;;20.52;15.35;;;;;;;;;;4996331;28;45820;-86
2021/12/05 16:58:05;;;;;;;22.27;16.42;;;;;;;;;;4997188;28;43927;-86
2021/12/05 17:00:35;;;;;;;20.65;15.60;;;;;;;;;;4994908;28;44550;-86
2021/12/05 17:03:05;;;;;;;20.20;14.10;;;;;;;;;;4994829;28;43501;-86
2021/12/05 17:05:36;;;;;;;17.48;14.23;;;;;;;;;;4997491;28;43955;-85
2021/12/05 17:08:12;;;;;;;18.02;14.35;;;;;;;;;;4994895;28;44926;-86
2021/12/05 17:10:48;;;;;;;18.58;15.45;;;;;;;;;;4994381;28;46108;-86
2021/12/05 17:13:28;;;;;;;22.42;16.48;;;;;;;;;;4997863;28;44976;-84
2021/12/05 17:15:58;;;;;;;24.63;17.73;;;;;;;;;;4994739;28;46178;-85
2021/12/05 17:18:24;;;;;;;42.75;24.67;;;;;;;;;;4916962;28;45090;-84
2021/12/05 17:20:53;;;;;;;51.15;25.80;;;;;;;;;;4996200;28;43432;-85
2021/12/05 17:23:25;;;;;;;40.08;19.15;;;;;;;;;;4936288;28;45914;-85
2021/12/05 17:25:55;;;;;;;23.42;15.60;;;;;;;;;;4994524;28;20059;-85
2021/12/05 17:28:21;;;;;;;;;;;;;;;;;;5003584;28;44831;-89
2021/12/05 17:30:49;;;;;;;23.55;16.38;;;;;;;;;;4987345;28;45374;-83
2021/12/05 17:33:36;;;;;;;17.70;15.23;;;;;;;;;;4988407;28;43335;-88
2021/12/05 17:36:21;;;;;;;28.40;20.98;;;;;;;;;;4988911;28;34039;-85
2021/12/05 17:38:49;;;;;;;19.80;13.73;;;;;;;;;;4989951;28;45972;-85
2021/12/05 17:41:16;;;;;;;14.75;11.70;;;;;;;;;;4989342;28;43086;-87
2021/12/05 17:43:43;;;;;;;15.07;11.55;;;;;;;;;;4967901;28;45757;-86
2021/12/05 17:46:11;;;;;;;15.48;12.73;;;;;;;;;;4917250;28;46901;-86
2021/12/05 17:48:38;;;;;;;19.02;14.35;;;;;;;;;;4994118;28;46130;-86
2021/12/05 17:51:05;;;;;;;23.30;18.58;;;;;;;;;;4997696;28;45988;-86
2021/12/05 17:53:35;;;;;;;25.42;18.05;;;;;;;;;;4999128;28;40470;-86
2021/12/05 17:56:10;;;;;;;29.75;20.55;;;;;;;;;;4995756;28;44913;-87
2021/12/05 18:03:57;;;;;;;22.65;17.33;;;;;;;;;;4959108;28;45930;-86
2021/12/05 18:06:25;;;;;;;19.95;15.23;;;;;;;;;;4997246;28;46009;-86
2021/12/05 18:08:51;;;;;;;20.30;14.35;;;;;;;;;;4997019;28;44994;-86
2021/12/05 18:11:24;;;;;;;19.00;12.00;;;;;;;;;;4993382;28;45642;-86
2021/12/05 18:13:54;;;;;;;18.40;12.80;;;;;;;;;;4996993;28;45444;-87
2021/12/05 18:16:25;;;;;;;18.95;15.45;;;;;;;;;;4995386;28;45367;-86
2021/12/05 18:18:54;;;;;;;22.15;15.25;;;;;;;;;;4996197;28;44601;-87
2021/12/05 18:21:21;;;;;;;;;;;;;;;;;;4996125;28;46013;-85
2021/12/05 18:23:49;;;;;;;17.52;13.63;;;;;;;;;;4997609;28;45413;-85
2021/12/05 18:26:16;;;;;;;24.70;15.60;;;;;;;;;;4998474;28;43545;-89
2021/12/05 18:28:49;;;;;;;20.92;15.55;;;;;;;;;;4996230;28;42389;-85
2021/12/05 18:31:19;;;;;;;22.13;14.85;;;;;;;;;;4998676;28;43036;-89
2021/12/05 18:33:49;;;;;;;29.95;21.33;;;;;;;;;;4913247;28;45977;-88
2021/12/05 18:36:16;;;;;;;32.95;23.10;;;;;;;;;;4996774;28;43980;-88
2021/12/05 18:38:43;;;;;;;32.65;22.45;;;;;;;;;;4999909;28;45723;-87
2021/12/05 18:41:12;;;;;;;22.20;17.08;;;;;;;;;;5000430;28;45962;-88
2021/12/05 18:43:45;;;;;;;32.03;18.88;;;;;;;;;;5000038;28;37459;-87
2021/12/05 18:46:12;;;;;;;30.23;21.38;;;;;;;;;;5001517;28;43561;-88
2021/12/05 18:48:41;;;;;;;24.77;17.58;;;;;;;;;;4996790;28;42371;-87
2021/12/05 18:51:09;;;;;;;22.48;15.60;;;;;;;;;;5000224;28;44271;-88
2021/12/05 18:53:35;;;;;;;24.83;18.35;;;;;;;;;;5001227;28;46064;-88
2021/12/05 18:56:03;;;;;;;22.77;16.08;;;;;;;;;;5000553;28;42168;-87
2021/12/05 18:58:29;;;;;;;24.98;17.60;;;;;;;;;;5000318;28;44647;-88
2021/12/05 19:06:37;;;;;;;25.73;17.63;;;;;;;;;;5000456;28;44194;-87
2021/12/05 19:14:20;;;;;;;34.65;21.25;;;;;;;;;;4999823;28;45689;-87
2021/12/05 19:16:48;;;;;;;47.35;24.90;;;;;;;;;;4998453;28;42357;-86
2021/12/05 19:19:15;;;;;;;53.20;27.25;;;;;;;;;;4999215;28;45753;-86
2021/12/05 19:21:42;;;;;;;104.70;38.13;;;;;;;;;;4999910;28;45934;-86
2021/12/05 19:24:09;;;;;;;103.30;39.97;;;;;;;;;;5000922;28;42888;-86
2021/12/05 19:26:36;;;;;;;70.50;31.33;;;;;;;;;;4999005;28;44874;-87
2021/12/05 19:29:03;;;;;;;35.47;20.15;;;;;;;;;;4998544;28;44974;-87
2021/12/05 19:31:30;;;;;;;33.22;19.48;;;;;;;;;;4999533;28;45740;-86
2021/12/05 19:33:57;;;;;;;33.45;21.88;;;;;;;;;;5001175;28;46012;-87
2021/12/05 19:36:26;;;;;;;36.13;22.15;;;;;;;;;;4999069;28;45337;-87
2021/12/05 19:38:54;;;;;;;35.40;22.10;;;;;;;;;;4999049;28;45783;-86
2021/12/05 19:41:21;;;;;;;34.80;21.13;;;;;;;;;;4998873;28;46067;-86
2021/12/05 19:43:48;;;;;;;31.17;22.23;;;;;;;;;;5000507;28;42924;-86
2021/12/05 19:46:15;;;;;;;30.10;20.67;;;;;;;;;;4998909;28;44489;-86
2021/12/05 19:48:42;;;;;;;39.33;24.17;;;;;;;;;;5000857;28;45491;-87
2021/12/05 19:51:10;;;;;;;30.23;21.05;;;;;;;;;;4998617;28;46106;-86
2021/12/05 19:53:38;;;;;;;30.02;20.63;;;;;;;;;;4999180;28;43919;-88
2021/12/05 19:56:06;;;;;;;35.90;21.33;;;;;;;;;;5000352;28;43894;-86
2021/12/05 19:58:32;;;;;;;34.88;20.73;;;;;;;;;;4995758;28;45758;-88
2021/12/05 20:00:59;;;;;;;38.15;23.05;;;;;;;;;;4997824;28;44929;-87
2021/12/05 20:03:26;;;;;;;37.47;23.20;;;;;;;;;;4997786;28;43900;-87
2021/12/05 20:05:53;;;;;;;42.22;24.17;;;;;;;;;;4997638;28;43670;-87
2021/12/05 20:08:20;;;;;;;39.83;25.05;;;;;;;;;;4995745;28;46156;-87
2021/12/05 20:10:47;;;;;;;43.13;25.00;;;;;;;;;;4998489;28;44994;-86
2021/12/05 20:13:15;;;;;;;32.00;21.25;;;;;;;;;;5000418;28;43903;-86
2021/12/05 20:15:42;;;;;;;40.10;25.30;;;;;;;;;;4998675;28;44976;-86
2021/12/05 20:18:10;;;;;;;39.80;25.08;;;;;;;;;;4997263;28;44717;-87
2021/12/05 20:20:39;;;;;;;40.90;24.20;;;;;;;;;;4997882;28;43924;-87
2021/12/05 20:23:06;;;;;;;40.13;23.02;;;;;;;;;;4998972;28;44945;-85
2021/12/05 20:25:35;;;;;;;40.03;24.35;;;;;;;;;;4999621;28;43628;-87
2021/12/05 20:28:02;;;;;;;41.30;23.80;;;;;;;;;;4997058;28;43729;-86